createdAt,value
2023-01-04T00:01:34.045Z,72.24
2023-01-04T00:04:02.044Z,71.97
2023-01-04T00:06:30.068Z,71.63
2023-01-04T00:08:57.975Z,72.42
2023-01-04T00:11:26.049Z,71.85
2023-01-04T00:13:58.610Z,71.79
2023-01-04T00:16:29.594Z,72.12
2023-01-04T00:18:58.252Z,72.85
2023-01-04T00:21:28.027Z,72.59
2023-01-04T00:23:57.731Z,72.50
2023-01-04T00:26:27.470Z,73.12
2023-01-04T00:28:57.861Z,72.89
2023-01-04T00:31:28.325Z,72.14
2023-01-04T00:33:57.656Z,72.04
2023-01-04T00:36:26.342Z,72.81
2023-01-04T00:39:08.914Z,72.43
2023-01-04T00:44:27.961Z,72.86
2023-01-04T00:46:56.244Z,72.70
2023-01-04T00:49:24.201Z,73.80
2023-01-04T00:51:52.122Z,72.37
2023-01-04T00:54:21.172Z,72.29
2023-01-04T00:56:49.886Z,72.87
2023-01-04T00:59:19.921Z,73.32
2023-01-04T01:01:50.061Z,72.74
2023-01-04T01:04:20.080Z,71.96
2023-01-04T01:06:48.740Z,72.39
2023-01-04T01:09:16.889Z,72.68
2023-01-04T01:11:45.084Z,73.15
2023-01-04T01:14:18.646Z,72.32
2023-01-04T01:17:02.486Z,72.68
2023-01-04T01:19:32.134Z,71.24
2023-01-04T01:22:00.252Z,71.94
2023-01-04T01:24:28.957Z,71.28
2023-01-04T01:26:57.561Z,71.98
2023-01-04T01:29:25.476Z,71.51
2023-01-04T01:31:53.658Z,71.77
2023-01-04T01:34:21.690Z,71.81
2023-01-04T01:36:51.219Z,72.14
2023-01-04T01:39:19.118Z,71.90
2023-01-04T01:41:47.111Z,72.13
2023-01-04T01:44:52.013Z,71.45
2023-01-04T01:47:22.455Z,71.27
2023-01-04T01:49:54.171Z,71.51
2023-01-04T01:52:28.666Z,71.25
2023-01-04T01:55:01.752Z,72.25
2023-01-04T01:57:33.284Z,71.91
2023-01-04T02:00:05.653Z,71.57
2023-01-04T02:02:46.428Z,71.30
2023-01-04T02:05:15.187Z,70.81
2023-01-04T02:07:45.141Z,70.74
2023-01-04T02:10:13.481Z,71.13
2023-01-04T02:12:41.796Z,70.80
2023-01-04T02:15:10.247Z,69.82
2023-01-04T02:17:46.093Z,70.22
2023-01-04T02:20:32.284Z,70.70
2023-01-04T02:23:28.882Z,70.56
2023-01-04T02:26:34.801Z,70.82
2023-01-04T02:29:36.274Z,71.14
2023-01-04T02:32:10.635Z,71.13
2023-01-04T02:34:52.250Z,70.41
2023-01-04T02:37:34.239Z,70.92
2023-01-04T02:40:08.995Z,70.80
2023-01-04T02:43:03.576Z,70.58
2023-01-04T02:45:37.682Z,71.18
2023-01-04T02:48:25.612Z,71.11
2023-01-04T02:50:56.078Z,71.73
2023-01-04T02:53:28.451Z,70.47
2023-01-04T02:56:08.967Z,71.41
2023-01-04T02:58:58.776Z,71.36
2023-01-04T03:01:54.548Z,71.27
2023-01-04T03:04:58.109Z,71.08
2023-01-04T03:07:34.947Z,71.50
2023-01-04T03:10:09.549Z,71.37
2023-01-04T03:12:46.751Z,72.37
2023-01-04T03:15:19.232Z,71.64
2023-01-04T03:17:52.123Z,71.35
2023-01-04T03:20:24.103Z,71.63
2023-01-04T03:23:13.545Z,72.08
2023-01-04T03:26:02.520Z,71.65
2023-01-04T03:28:53.248Z,71.77
2023-01-04T03:31:44.032Z,71.47
2023-01-04T03:34:30.137Z,71.89
2023-01-04T03:37:08.619Z,72.27
2023-01-04T03:40:03.423Z,71.93
2023-01-04T03:43:00.963Z,71.45
2023-01-04T03:45:51.351Z,72.12
2023-01-04T03:48:31.020Z,71.05
2023-01-04T03:51:06.272Z,71.24
2023-01-04T03:53:41.306Z,71.57
2023-01-04T03:56:11.751Z,71.93
2023-01-04T03:58:40.238Z,70.79
2023-01-04T04:01:08.702Z,72.31
2023-01-04T04:03:54.110Z,70.45
2023-01-04T04:06:39.459Z,71.61
2023-01-04T04:09:08.713Z,72.29
2023-01-04T04:11:36.583Z,71.96
2023-01-04T04:14:04.481Z,71.09
2023-01-04T04:16:32.477Z,71.22
2023-01-04T04:19:06.428Z,71.67
2023-01-04T04:21:36.356Z,70.74
2023-01-04T04:24:04.606Z,71.63
2023-01-04T04:26:34.147Z,70.98
2023-01-04T04:29:02.038Z,72.33
2023-01-04T04:31:29.947Z,72.16
2023-01-04T04:33:57.819Z,71.89
2023-01-04T04:36:25.667Z,72.54
2023-01-04T04:38:53.528Z,72.08
2023-01-04T04:41:38.469Z,72.00
2023-01-04T04:44:08.666Z,72.02
2023-01-04T04:46:36.939Z,71.98
2023-01-04T04:49:05.335Z,70.84
2023-01-04T04:51:33.472Z,71.06
2023-01-04T04:54:01.678Z,71.08
2023-01-04T04:56:29.767Z,70.91
2023-01-04T04:58:57.925Z,71.12
2023-01-04T05:01:27.239Z,70.82
2023-01-04T05:03:55.393Z,72.07
2023-01-04T05:06:23.428Z,72.07
2023-01-04T05:08:51.485Z,71.46
2023-01-04T05:11:39.742Z,71.43
2023-01-04T05:14:06.647Z,70.99
2023-01-04T05:16:36.670Z,71.07
2023-01-04T05:19:05.000Z,70.37
2023-01-04T05:21:32.842Z,70.76
2023-01-04T05:24:00.744Z,70.87
2023-01-04T05:26:28.608Z,70.85
2023-01-04T05:28:56.451Z,71.02
2023-01-04T05:31:23.669Z,70.96
2023-01-04T05:33:52.972Z,71.92
2023-01-04T05:36:20.873Z,70.26
2023-01-04T05:38:48.730Z,70.87
2023-01-04T05:41:30.523Z,70.62
2023-01-04T05:43:58.509Z,70.57
2023-01-04T05:46:26.365Z,70.66
2023-01-04T05:48:55.829Z,70.84
2023-01-04T05:51:23.694Z,70.92
2023-01-04T05:53:51.503Z,71.24
2023-01-04T05:56:19.331Z,71.22
2023-01-04T05:58:47.357Z,71.74
2023-01-04T06:01:15.218Z,70.98
2023-01-04T06:03:43.646Z,71.13
2023-01-04T06:06:13.024Z,71.82
2023-01-04T06:08:40.910Z,71.74
2023-01-04T06:11:08.777Z,71.20
2023-01-04T06:13:36.688Z,70.90
2023-01-04T06:16:04.707Z,70.52
2023-01-04T06:18:32.616Z,70.10
2023-01-04T06:21:00.466Z,70.63
2023-01-04T06:23:29.725Z,70.37
2023-01-04T06:25:57.632Z,69.56
2023-01-04T06:28:25.473Z,69.85
2023-01-04T06:30:53.477Z,70.06
2023-01-04T06:33:21.475Z,69.67
2023-01-04T06:35:55.021Z,69.68
2023-01-04T06:38:23.141Z,69.96
2023-01-04T06:40:52.666Z,69.08
2023-01-04T06:43:20.521Z,69.05
2023-01-04T06:45:48.391Z,68.58
2023-01-04T06:48:18.116Z,69.40
2023-01-04T06:50:46.659Z,69.64
2023-01-04T06:53:14.550Z,69.36
2023-01-04T06:55:44.441Z,67.90
2023-01-04T06:58:13.933Z,68.79
2023-01-04T07:00:41.843Z,68.17
2023-01-04T07:03:13.392Z,68.40
2023-01-04T07:05:43.803Z,67.49
2023-01-04T07:08:12.337Z,67.58
2023-01-04T07:10:40.346Z,66.61
2023-01-04T07:13:09.554Z,66.63
2023-01-04T07:15:40.939Z,66.72
2023-01-04T07:18:09.136Z,68.62
2023-01-04T07:20:37.378Z,69.17
2023-01-04T07:23:05.560Z,69.77
2023-01-04T07:25:33.669Z,69.83
2023-01-04T07:28:01.785Z,71.22
2023-01-04T07:30:29.831Z,70.51
2023-01-04T07:32:59.496Z,71.46
2023-01-04T07:35:27.520Z,70.77
2023-01-04T07:37:58.713Z,71.56
2023-01-04T07:40:28.035Z,72.96
2023-01-04T07:42:58.034Z,72.79
2023-01-04T07:45:26.271Z,73.74
2023-01-04T07:47:54.395Z,73.71
2023-01-04T07:50:23.680Z,74.50
2023-01-04T07:52:51.577Z,74.46
2023-01-04T07:55:19.434Z,75.55
2023-01-04T07:57:47.367Z,75.50
2023-01-04T08:00:16.002Z,77.69
2023-01-04T08:02:43.944Z,78.01
2023-01-04T08:05:12.099Z,77.14
2023-01-04T08:07:41.459Z,77.94
2023-01-04T08:10:09.852Z,77.90
2023-01-04T08:12:37.680Z,78.35
2023-01-04T08:15:06.592Z,77.48
2023-01-04T08:17:34.683Z,79.13
2023-01-04T08:20:02.655Z,79.21
2023-01-04T08:22:30.748Z,79.77
2023-01-04T08:25:00.380Z,79.24
2023-01-04T08:27:28.444Z,80.29
2023-01-04T08:29:56.379Z,81.34
2023-01-04T08:32:24.409Z,80.64
2023-01-04T08:34:53.516Z,80.81
2023-01-04T08:37:22.083Z,80.70
2023-01-04T08:39:50.287Z,80.11
2023-01-04T08:42:28.480Z,81.97
2023-01-04T08:45:01.630Z,81.07
2023-01-04T08:47:30.660Z,81.45
2023-01-04T08:50:03.289Z,82.62
2023-01-04T08:52:35.933Z,81.16
2023-01-04T08:55:10.137Z,81.30
2023-01-04T08:57:41.866Z,81.21
2023-01-04T09:00:11.319Z,82.38
2023-01-04T09:02:39.451Z,83.19
2023-01-04T09:05:08.521Z,82.98
2023-01-04T09:07:36.707Z,82.57
2023-01-04T09:10:04.923Z,82.95
2023-01-04T09:12:33.053Z,83.96
2023-01-04T09:15:02.502Z,83.54
2023-01-04T09:17:30.704Z,83.25
2023-01-04T09:19:58.695Z,83.30
2023-01-04T09:22:26.942Z,82.35
2023-01-04T09:24:55.349Z,82.41
2023-01-04T09:27:23.748Z,83.86
2023-01-04T09:29:51.742Z,84.06
2023-01-04T09:32:21.129Z,83.44
2023-01-04T09:34:49.139Z,83.06
2023-01-04T09:37:17.126Z,83.03
2023-01-04T09:39:45.749Z,82.89
2023-01-04T09:42:21.548Z,83.66
2023-01-04T09:45:22.615Z,84.28
2023-01-04T09:47:46.843Z,82.97
2023-01-04T09:50:17.737Z,83.84
2023-01-04T09:52:53.011Z,83.85
2023-01-04T09:55:37.504Z,83.88
2023-01-04T09:58:18.804Z,84.21
2023-01-04T10:00:50.417Z,84.57
2023-01-04T10:03:25.334Z,84.55
2023-01-04T10:05:56.734Z,85.58
2023-01-04T10:08:25.186Z,85.68
2023-01-04T10:11:05.242Z,85.13
2023-01-04T10:14:01.320Z,85.46
2023-01-04T10:21:12.037Z,85.28
2023-01-04T10:22:46.961Z,86.01
2023-01-04T10:25:30.400Z,85.45
2023-01-04T10:28:16.050Z,84.96
2023-01-04T10:30:52.189Z,85.90
2023-01-04T10:33:25.441Z,85.03
2023-01-04T10:35:54.675Z,84.37
2023-01-04T10:38:26.808Z,86.21
2023-01-04T10:40:58.895Z,85.48
2023-01-04T10:44:11.461Z,86.11
2023-01-04T10:46:31.019Z,84.90
2023-01-04T10:49:05.536Z,84.90
2023-01-04T10:51:43.277Z,85.26
2023-01-04T10:54:20.585Z,84.19
2023-01-04T10:56:53.227Z,85.20
2023-01-04T10:59:28.042Z,85.53
2023-01-04T11:02:02.740Z,84.54
2023-01-04T11:04:36.951Z,84.10
2023-01-04T11:07:11.772Z,83.49
2023-01-04T11:09:43.479Z,84.77
2023-01-04T11:12:18.181Z,83.39
2023-01-04T11:14:46.411Z,84.07
2023-01-04T11:17:14.433Z,83.56
2023-01-04T11:19:43.842Z,84.17
2023-01-04T11:22:22.290Z,83.75
2023-01-04T11:25:32.944Z,82.12
2023-01-04T11:27:47.438Z,83.51
2023-01-04T11:30:20.005Z,84.13
2023-01-04T11:32:54.002Z,83.85
2023-01-04T11:35:43.395Z,83.45
2023-01-04T11:38:17.770Z,83.25
2023-01-04T11:40:57.439Z,82.90
2023-01-04T11:43:26.922Z,83.20
2023-01-04T11:46:01.377Z,83.06
2023-01-04T11:48:35.509Z,83.10
2023-01-04T11:51:04.070Z,83.13
2023-01-04T11:53:35.756Z,83.82
2023-01-04T11:56:19.277Z,83.28
2023-01-04T11:59:05.852Z,82.83
2023-01-04T12:01:35.587Z,82.94
2023-01-04T12:04:04.729Z,82.66
2023-01-04T12:06:38.535Z,82.78
2023-01-04T12:09:14.416Z,82.46
2023-01-04T12:11:46.957Z,82.43
2023-01-04T12:14:20.607Z,82.28
2023-01-04T12:16:55.628Z,82.29
2023-01-04T12:19:23.943Z,83.63
2023-01-04T12:21:55.677Z,84.35
2023-01-04T12:24:28.805Z,85.17
2023-01-04T12:26:57.083Z,84.70
2023-01-04T12:29:53.670Z,85.69
2023-01-04T12:32:46.948Z,83.42
2023-01-04T12:36:04.172Z,83.89
2023-01-04T12:38:58.283Z,83.90
2023-01-04T12:42:00.717Z,83.31
2023-01-04T12:45:05.979Z,83.06
2023-01-04T12:47:59.480Z,84.69
2023-01-04T12:50:32.150Z,84.62
2023-01-04T12:53:38.802Z,84.95
2023-01-04T12:55:55.751Z,85.83
2023-01-04T13:02:19.809Z,86.47
2023-01-04T13:04:48.727Z,86.73
2023-01-04T13:07:21.162Z,88.74
2023-01-04T13:09:59.606Z,87.87
2023-01-04T13:13:01.292Z,86.75
2023-01-04T13:15:49.676Z,86.81
2023-01-04T13:18:34.059Z,86.39
2023-01-04T13:21:03.410Z,87.09
2023-01-04T13:23:31.773Z,86.43
2023-01-04T13:26:45.966Z,86.28
2023-01-04T13:29:21.349Z,86.90
2023-01-04T13:31:56.530Z,86.91
2023-01-04T13:34:27.751Z,88.46
2023-01-04T13:37:14.794Z,87.01
2023-01-04T13:39:45.031Z,85.99
2023-01-04T13:42:19.545Z,87.60
2023-01-04T13:45:22.064Z,86.71
2023-01-04T13:47:54.101Z,86.70
2023-01-04T13:50:30.138Z,85.98
2023-01-04T13:53:13.514Z,85.96
2023-01-04T13:55:41.369Z,86.89
2023-01-04T13:58:18.653Z,85.75
2023-01-04T14:00:49.625Z,85.70
2023-01-04T14:03:30.704Z,85.15
2023-01-04T14:06:16.787Z,85.80
2023-01-04T14:08:51.807Z,85.55
2023-01-04T14:11:41.087Z,86.90
2023-01-04T14:14:32.732Z,85.78
2023-01-04T14:17:27.624Z,87.09
2023-01-04T14:19:58.962Z,86.34
2023-01-04T14:22:52.361Z,85.07
2023-01-04T14:25:45.088Z,88.16
2023-01-04T14:28:28.098Z,86.39
2023-01-04T14:30:57.916Z,85.88
2023-01-04T14:33:33.993Z,86.41
2023-01-04T14:36:11.360Z,86.37
2023-01-04T14:38:41.951Z,85.86
2023-01-04T14:41:20.755Z,86.15
2023-01-04T14:43:53.464Z,87.16
2023-01-04T14:46:22.495Z,86.39
2023-01-04T14:48:50.596Z,87.72
2023-01-04T14:51:22.698Z,86.12
2023-01-04T14:53:51.021Z,85.96
2023-01-04T14:56:19.982Z,86.39
2023-01-04T14:58:47.926Z,86.71
2023-01-04T15:01:15.958Z,86.14
2023-01-04T15:03:44.085Z,85.32
2023-01-04T15:06:12.628Z,86.08
2023-01-04T15:08:41.891Z,85.27
2023-01-04T15:11:11.667Z,85.24
2023-01-04T15:13:40.046Z,86.62
2023-01-04T15:16:11.540Z,85.98
2023-01-04T15:18:39.425Z,85.70
2023-01-04T15:21:07.812Z,85.61
2023-01-04T15:23:35.707Z,85.55
2023-01-04T15:26:07.498Z,86.46
2023-01-04T15:28:36.067Z,86.20
2023-01-04T15:31:08.109Z,86.43
2023-01-04T15:33:36.214Z,85.46
2023-01-04T15:36:06.511Z,84.68
2023-01-04T15:38:34.941Z,86.02
2023-01-04T15:41:05.129Z,84.85
2023-01-04T15:43:36.460Z,84.87
2023-01-04T15:46:07.317Z,85.15
2023-01-04T15:48:35.545Z,85.72
2023-01-04T15:51:05.937Z,86.16
2023-01-04T15:53:33.779Z,85.86
2023-01-04T15:56:09.128Z,84.40
2023-01-04T15:58:38.813Z,84.86
2023-01-04T16:01:10.606Z,83.93
2023-01-04T16:03:38.812Z,84.24
2023-01-04T16:06:08.234Z,85.07
2023-01-04T16:08:36.327Z,84.84
2023-01-04T16:11:12.476Z,85.11
2023-01-04T16:13:42.214Z,84.41
2023-01-04T16:16:11.195Z,83.77
2023-01-04T16:18:39.402Z,86.33
2023-01-04T16:21:08.890Z,85.86
2023-01-04T16:23:37.444Z,86.75
2023-01-04T16:26:07.337Z,86.83
2023-01-04T16:28:35.648Z,86.27
2023-01-04T16:31:06.000Z,86.35
2023-01-04T16:33:35.423Z,88.02
2023-01-04T16:36:05.509Z,86.90
2023-01-04T16:38:37.146Z,86.88
2023-01-04T16:41:07.148Z,87.30
2023-01-04T16:43:44.297Z,86.23
2023-01-04T16:46:20.420Z,85.37
2023-01-04T16:48:50.589Z,84.79
2023-01-04T16:51:18.724Z,84.41
2023-01-04T16:53:46.664Z,84.03
2023-01-04T16:56:16.662Z,84.31
2023-01-04T16:58:44.916Z,85.11
2023-01-04T17:01:15.116Z,83.70
2023-01-04T17:03:45.868Z,85.82
2023-01-04T17:06:16.888Z,82.54
2023-01-04T17:08:45.543Z,83.44
2023-01-04T17:14:03.897Z,83.24
2023-01-04T17:16:35.010Z,82.14
2023-01-04T17:19:04.618Z,82.12
2023-01-04T17:21:34.164Z,81.92
2023-01-04T17:24:03.036Z,81.56
2023-01-04T17:26:33.033Z,81.74
2023-01-04T17:29:01.925Z,81.58
2023-01-04T17:31:31.941Z,83.28
2023-01-04T17:34:00.080Z,82.10
2023-01-04T17:36:29.465Z,82.40
2023-01-04T17:38:59.180Z,81.47
2023-01-04T17:41:28.647Z,80.55
2023-01-04T17:44:00.208Z,79.61
2023-01-04T17:46:31.832Z,81.68
2023-01-04T17:51:52.764Z,81.76
2023-01-04T17:54:21.304Z,80.85
2023-01-04T17:56:49.345Z,80.76
2023-01-04T17:59:17.175Z,80.88
2023-01-04T18:01:45.063Z,80.36
2023-01-04T18:04:13.313Z,81.15
2023-01-04T18:06:41.281Z,80.83
2023-01-04T18:09:15.388Z,80.10
2023-01-04T18:11:46.365Z,81.29
2023-01-04T18:14:14.672Z,79.76
2023-01-04T18:16:57.695Z,79.17
2023-01-04T18:19:27.405Z,78.85
2023-01-04T18:21:55.558Z,79.12
2023-01-04T18:24:36.125Z,78.11
2023-01-04T18:27:22.523Z,77.46
2023-01-04T18:29:51.721Z,77.74
2023-01-04T18:32:19.980Z,78.48
2023-01-04T18:34:47.831Z,78.36
2023-01-04T18:37:18.255Z,77.91
2023-01-04T18:39:47.991Z,77.74
2023-01-04T18:42:16.079Z,77.74
2023-01-04T18:44:48.368Z,78.12
2023-01-04T18:47:19.690Z,77.90
2023-01-04T18:49:47.996Z,76.96
2023-01-04T18:52:16.232Z,76.86
2023-01-04T18:54:44.930Z,76.15
2023-01-04T18:57:14.528Z,76.18
2023-01-04T18:59:42.595Z,75.32
2023-01-04T19:02:16.542Z,76.68
2023-01-04T19:04:44.880Z,76.76
2023-01-04T19:07:12.804Z,76.66
2023-01-04T19:09:42.535Z,76.54
2023-01-04T19:12:10.878Z,76.85
2023-01-04T19:14:41.791Z,77.11
2023-01-04T19:17:10.433Z,77.67
2023-01-04T19:19:38.564Z,77.78
2023-01-04T19:22:06.469Z,77.07
2023-01-04T19:24:34.377Z,76.29
2023-01-04T19:27:05.105Z,75.83
2023-01-04T19:29:33.999Z,76.20
2023-01-04T19:32:03.583Z,76.71
2023-01-04T19:34:31.466Z,76.05
2023-01-04T19:36:59.371Z,76.08
2023-01-04T19:39:27.298Z,75.94
2023-01-04T19:41:55.164Z,76.96
2023-01-04T19:44:23.353Z,76.63
2023-01-04T19:46:51.283Z,76.92
2023-01-04T19:49:20.538Z,76.47
2023-01-04T19:51:51.501Z,76.03
2023-01-04T19:54:25.210Z,75.91
2023-01-04T19:56:54.470Z,76.11
2023-01-04T19:59:22.966Z,77.22
2023-01-04T20:01:51.005Z,76.44
2023-01-04T20:04:20.983Z,77.01
2023-01-04T20:06:48.989Z,76.42
2023-01-04T20:09:18.453Z,77.25
2023-01-04T20:11:46.598Z,75.83
2023-01-04T20:14:14.469Z,76.27
2023-01-04T20:16:42.371Z,76.31
2023-01-04T20:19:10.319Z,77.16
2023-01-04T20:21:39.674Z,76.35
2023-01-04T20:24:08.183Z,76.26
2023-01-04T20:26:36.103Z,76.88
2023-01-04T20:29:04.545Z,76.50
2023-01-04T20:31:33.815Z,76.62
2023-01-04T20:34:01.781Z,76.65
2023-01-04T20:36:30.218Z,75.34
2023-01-04T20:39:00.615Z,76.37
2023-01-04T20:41:31.704Z,76.15
2023-01-04T20:43:59.636Z,76.46
2023-01-04T20:46:31.534Z,76.71
2023-01-04T20:49:00.436Z,77.04
2023-01-04T20:51:29.736Z,76.61
2023-01-04T20:54:00.161Z,76.25
2023-01-04T20:56:30.353Z,75.03
2023-01-04T20:58:58.386Z,75.92
2023-01-04T21:01:26.361Z,76.74
2023-01-04T21:03:54.544Z,75.92
2023-01-04T21:06:23.146Z,75.65
2023-01-04T21:08:52.562Z,75.16
2023-01-04T21:11:22.160Z,74.97
2023-01-04T21:13:51.946Z,74.60
2023-01-04T21:16:19.848Z,74.85
2023-01-04T21:18:47.767Z,73.89
2023-01-04T21:21:17.362Z,74.00
2023-01-04T21:23:45.826Z,74.06
2023-01-04T21:26:16.411Z,74.29
2023-01-04T21:28:46.304Z,75.27
2023-01-04T21:31:17.504Z,75.94
2023-01-04T21:33:45.394Z,75.49
2023-01-04T21:36:15.236Z,76.59
2023-01-04T21:38:43.397Z,78.09
2023-01-04T21:41:13.209Z,80.53
2023-01-04T21:43:41.889Z,80.07
2023-01-04T21:46:14.814Z,80.84
2023-01-04T21:48:43.651Z,80.65
2023-01-04T21:51:12.484Z,82.51
2023-01-04T21:53:42.098Z,82.09
2023-01-04T21:56:13.076Z,82.82
2023-01-04T21:58:40.959Z,82.42
2023-01-04T22:01:15.287Z,80.98
2023-01-04T22:03:43.373Z,82.19
2023-01-04T22:06:13.295Z,81.67
2023-01-04T22:08:43.094Z,83.03
2023-01-04T22:11:11.410Z,82.30
2023-01-04T22:13:39.307Z,82.01
2023-01-04T22:16:08.116Z,83.33
2023-01-04T22:18:37.945Z,85.56
2023-01-04T22:21:07.749Z,84.35
2023-01-04T22:23:35.983Z,83.83
2023-01-04T22:26:04.336Z,83.92
2023-01-04T22:28:36.750Z,83.71
2023-01-04T22:31:07.025Z,85.02
2023-01-04T22:33:36.894Z,85.43
2023-01-04T22:36:06.351Z,87.32
2023-01-04T22:38:35.114Z,85.87
2023-01-04T22:41:07.191Z,84.47
2023-01-04T22:43:35.597Z,85.81
2023-01-04T22:46:05.606Z,85.67
2023-01-04T22:48:34.423Z,84.88
2023-01-04T22:51:07.989Z,84.89
2023-01-04T22:53:36.453Z,83.43
2023-01-04T22:56:18.932Z,82.74
2023-01-04T22:58:53.120Z,83.38
2023-01-04T23:01:22.327Z,82.19
2023-01-04T23:03:51.730Z,83.29
2023-01-04T23:06:22.006Z,83.26
2023-01-04T23:08:54.856Z,82.60
2023-01-04T23:11:22.766Z,82.99
2023-01-04T23:13:50.921Z,83.68
2023-01-04T23:16:18.894Z,84.12
2023-01-04T23:18:46.956Z,85.22
2023-01-04T23:21:16.405Z,84.15
2023-01-04T23:23:49.986Z,84.50
2023-01-04T23:26:20.158Z,85.73
2023-01-04T23:28:49.016Z,84.60
2023-01-04T23:31:19.560Z,83.58
2023-01-04T23:33:48.025Z,85.41
2023-01-04T23:36:18.730Z,85.17
2023-01-04T23:38:52.230Z,85.02
2023-01-04T23:41:20.332Z,84.24
2023-01-04T23:43:48.865Z,84.00
2023-01-04T23:46:18.609Z,85.82
2023-01-04T23:48:46.531Z,83.35
2023-01-04T23:51:15.849Z,83.70
2023-01-04T23:53:43.711Z,83.02
2023-01-04T23:56:16.230Z,84.90
2023-01-04T23:58:44.548Z,84.53
